sensor_id;sensor_type;location;lat;lon;timestamp;pressure;altitude;pressure_sealevel;temperature;humidity
56825;BME280;42705;50.326;18.772;2023-06-22T00:03:46;98622.16;;;22.57;65.04
56825;BME280;42705;50.326;18.772;2023-06-22T00:09:07;98626.95;;;22.59;65.22
56825;BME280;42705;50.326;18.772;2023-06-22T00:14:28;98635.20;;;22.59;65.12
56825;BME280;42705;50.326;18.772;2023-06-22T00:19:49;98639.98;;;22.56;65.13
56825;BME280;42705;50.326;18.772;2023-06-22T00:25:14;98643.48;;;22.49;65.07
56825;BME280;42705;50.326;18.772;2023-06-22T00:30:35;98638.02;;;22.28;65.12
56825;BME280;42705;50.326;18.772;2023-06-22T00:35:57;98632.05;;;22.02;65.55
56825;BME280;42705;50.326;18.772;2023-06-22T00:41:18;98631.65;;;21.85;65.91
56825;BME280;42705;50.326;18.772;2023-06-22T00:46:39;98638.80;;;21.74;66.19
56825;BME280;42705;50.326;18.772;2023-06-22T00:52:00;98651.73;;;21.69;66.40
56825;BME280;42705;50.326;18.772;2023-06-22T00:57:22;98648.84;;;21.55;66.58
56825;BME280;42705;50.326;18.772;2023-06-22T01:02:50;98645.13;;;21.52;66.81
56825;BME280;42705;50.326;18.772;2023-06-22T01:08:38;98645.54;;;21.54;67.14
56825;BME280;42705;50.326;18.772;2023-06-22T01:19:45;98651.06;;;21.80;67.11
56825;BME280;42705;50.326;18.772;2023-06-22T01:25:21;98656.36;;;21.93;66.98
56825;BME280;42705;50.326;18.772;2023-06-22T01:30:49;98653.48;;;21.97;66.61
56825;BME280;42705;50.326;18.772;2023-06-22T01:36:10;98646.95;;;21.97;66.43
56825;BME280;42705;50.326;18.772;2023-06-22T01:41:36;98646.50;;;21.99;66.33
56825;BME280;42705;50.326;18.772;2023-06-22T01:46:59;98651.44;;;21.96;66.22
56825;BME280;42705;50.326;18.772;2023-06-22T01:52:21;98649.85;;;21.89;66.23
56825;BME280;42705;50.326;18.772;2023-06-22T01:57:42;98650.40;;;21.78;66.25
56825;BME280;42705;50.326;18.772;2023-06-22T02:03:09;98650.51;;;21.69;66.35
56825;BME280;42705;50.326;18.772;2023-06-22T02:08:40;98657.14;;;21.60;66.42
56825;BME280;42705;50.326;18.772;2023-06-22T02:14:03;98662.14;;;21.53;66.61
56825;BME280;42705;50.326;18.772;2023-06-22T02:19:26;98665.66;;;21.50;66.68
56825;BME280;42705;50.326;18.772;2023-06-22T02:24:47;98667.84;;;21.41;66.81
56825;BME280;42705;50.326;18.772;2023-06-22T02:30:09;98671.24;;;21.33;67.01
56825;BME280;42705;50.326;18.772;2023-06-22T02:35:34;98679.33;;;21.22;67.08
56825;BME280;42705;50.326;18.772;2023-06-22T02:40:56;98695.85;;;21.05;67.35
56825;BME280;42705;50.326;18.772;2023-06-22T02:46:19;98702.25;;;20.90;67.73
56825;BME280;42705;50.326;18.772;2023-06-22T02:51:45;98699.29;;;20.84;68.12
56825;BME280;42705;50.326;18.772;2023-06-22T02:57:07;98705.28;;;20.79;68.29
56825;BME280;42705;50.326;18.772;2023-06-22T03:02:35;98709.63;;;20.73;68.56
56825;BME280;42705;50.326;18.772;2023-06-22T03:07:56;98715.27;;;20.70;68.94
56825;BME280;42705;50.326;18.772;2023-06-22T03:13:18;98726.79;;;20.73;69.08
56825;BME280;42705;50.326;18.772;2023-06-22T03:18:39;98738.41;;;20.79;69.16
56825;BME280;42705;50.326;18.772;2023-06-22T03:24:00;98740.95;;;20.87;69.17
56825;BME280;42705;50.326;18.772;2023-06-22T03:29:21;98733.86;;;20.98;69.18
56825;BME280;42705;50.326;18.772;2023-06-22T03:34:42;98729.79;;;21.16;69.36
56825;BME280;42705;50.326;18.772;2023-06-22T03:40:08;98735.55;;;21.33;69.25
56825;BME280;42705;50.326;18.772;2023-06-22T03:45:56;98740.25;;;21.46;69.22
56825;BME280;42705;50.326;18.772;2023-06-22T03:51:18;98736.03;;;21.59;69.06
56825;BME280;42705;50.326;18.772;2023-06-22T03:56:39;98739.25;;;21.67;68.94
56825;BME280;42705;50.326;18.772;2023-06-22T04:02:00;98739.30;;;21.74;68.94
56825;BME280;42705;50.326;18.772;2023-06-22T04:07:21;98747.95;;;21.81;68.73
56825;BME280;42705;50.326;18.772;2023-06-22T04:12:43;98756.88;;;21.86;68.58
56825;BME280;42705;50.326;18.772;2023-06-22T04:18:04;98753.35;;;21.88;68.45
56825;BME280;42705;50.326;18.772;2023-06-22T04:23:25;98751.70;;;21.91;68.52
56825;BME280;42705;50.326;18.772;2023-06-22T04:28:47;98755.42;;;21.98;68.57
56825;BME280;42705;50.326;18.772;2023-06-22T04:34:12;98756.01;;;22.03;68.66
56825;BME280;42705;50.326;18.772;2023-06-22T04:39:37;98760.13;;;22.11;68.67
56825;BME280;42705;50.326;18.772;2023-06-22T04:44:58;98764.63;;;22.24;68.67
56825;BME280;42705;50.326;18.772;2023-06-22T04:50:19;98766.16;;;22.35;68.58
56825;BME280;42705;50.326;18.772;2023-06-22T04:55:42;98765.75;;;22.39;68.41
56825;BME280;42705;50.326;18.772;2023-06-22T05:01:07;98768.05;;;22.44;68.44
56825;BME280;42705;50.326;18.772;2023-06-22T05:06:29;98766.14;;;22.54;68.28
56825;BME280;42705;50.326;18.772;2023-06-22T05:11:51;98774.66;;;22.70;68.15
56825;BME280;42705;50.326;18.772;2023-06-22T05:17:12;98782.39;;;22.89;67.99
56825;BME280;42705;50.326;18.772;2023-06-22T05:22:34;98793.79;;;23.00;67.76
56825;BME280;42705;50.326;18.772;2023-06-22T05:27:55;98787.41;;;23.12;67.46
56825;BME280;42705;50.326;18.772;2023-06-22T05:33:16;98788.27;;;23.24;67.13
56825;BME280;42705;50.326;18.772;2023-06-22T05:38:38;98797.95;;;23.35;66.79
56825;BME280;42705;50.326;18.772;2023-06-22T05:44:00;98806.44;;;23.40;66.51
56825;BME280;42705;50.326;18.772;2023-06-22T05:49:21;98806.06;;;23.41;66.07
56825;BME280;42705;50.326;18.772;2023-06-22T05:54:43;98800.80;;;23.41;65.71
56825;BME280;42705;50.326;18.772;2023-06-22T06:00:05;98796.82;;;23.40;65.48
56825;BME280;42705;50.326;18.772;2023-06-22T06:05:32;98801.67;;;23.40;65.41
56825;BME280;42705;50.326;18.772;2023-06-22T06:10:54;98801.25;;;23.35;65.14
56825;BME280;42705;50.326;18.772;2023-06-22T06:16:15;98807.80;;;23.33;64.98
56825;BME280;42705;50.326;18.772;2023-06-22T06:21:37;98816.15;;;23.39;65.01
56825;BME280;42705;50.326;18.772;2023-06-22T06:26:58;98821.37;;;23.45;64.87
56825;BME280;42705;50.326;18.772;2023-06-22T06:32:19;98814.52;;;23.49;64.56
56825;BME280;42705;50.326;18.772;2023-06-22T06:37:42;98818.38;;;23.51;64.44
56825;BME280;42705;50.326;18.772;2023-06-22T06:43:04;98815.97;;;23.59;64.23
56825;BME280;42705;50.326;18.772;2023-06-22T06:48:25;98811.20;;;23.67;63.82
56825;BME280;42705;50.326;18.772;2023-06-22T06:53:46;98814.01;;;23.72;63.51
56825;BME280;42705;50.326;18.772;2023-06-22T06:59:07;98814.15;;;23.80;63.24
56825;BME280;42705;50.326;18.772;2023-06-22T07:04:29;98817.88;;;23.88;62.46
56825;BME280;42705;50.326;18.772;2023-06-22T07:09:50;98815.09;;;23.90;61.59
56825;BME280;42705;50.326;18.772;2023-06-22T07:15:11;98818.87;;;23.92;60.93
56825;BME280;42705;50.326;18.772;2023-06-22T07:20:33;98817.77;;;23.96;60.44
56825;BME280;42705;50.326;18.772;2023-06-22T07:25:54;98823.45;;;24.02;60.14
56825;BME280;42705;50.326;18.772;2023-06-22T07:31:15;98826.18;;;24.06;59.60
56825;BME280;42705;50.326;18.772;2023-06-22T07:36:36;98818.74;;;24.10;59.08
56825;BME280;42705;50.326;18.772;2023-06-22T07:41:57;98817.78;;;24.11;58.69
56825;BME280;42705;50.326;18.772;2023-06-22T07:47:19;98824.89;;;24.17;58.69
56825;BME280;42705;50.326;18.772;2023-06-22T07:52:40;98829.48;;;24.24;58.45
56825;BME280;42705;50.326;18.772;2023-06-22T07:58:01;98835.20;;;24.33;58.25
56825;BME280;42705;50.326;18.772;2023-06-22T08:03:22;98844.21;;;24.43;57.80
56825;BME280;42705;50.326;18.772;2023-06-22T08:08:43;98847.27;;;24.50;57.36
56825;BME280;42705;50.326;18.772;2023-06-22T08:14:04;98843.70;;;24.56;57.07
56825;BME280;42705;50.326;18.772;2023-06-22T08:19:25;98848.96;;;24.66;56.95
56825;BME280;42705;50.326;18.772;2023-06-22T08:24:46;98856.00;;;24.77;56.63
56825;BME280;42705;50.326;18.772;2023-06-22T08:30:09;98861.73;;;24.88;56.18
56825;BME280;42705;50.326;18.772;2023-06-22T08:35:31;98863.13;;;25.01;55.97
56825;BME280;42705;50.326;18.772;2023-06-22T08:40:52;98863.05;;;25.14;55.53
56825;BME280;42705;50.326;18.772;2023-06-22T08:46:14;98860.91;;;25.24;55.49
56825;BME280;42705;50.326;18.772;2023-06-22T08:51:35;98868.30;;;25.37;55.07
56825;BME280;42705;50.326;18.772;2023-06-22T08:56:56;98864.60;;;25.47;54.74
56825;BME280;42705;50.326;18.772;2023-06-22T09:02:18;98860.55;;;25.50;53.97
56825;BME280;42705;50.326;18.772;2023-06-22T09:07:40;98859.56;;;25.49;53.45
56825;BME280;42705;50.326;18.772;2023-06-22T09:13:01;98852.73;;;25.51;53.64
56825;BME280;42705;50.326;18.772;2023-06-22T09:18:22;98850.64;;;25.56;53.37
56825;BME280;42705;50.326;18.772;2023-06-22T09:23:43;98845.48;;;25.63;53.47
56825;BME280;42705;50.326;18.772;2023-06-22T09:29:07;98831.45;;;25.70;53.30
56825;BME280;42705;50.326;18.772;2023-06-22T09:34:28;98828.89;;;25.79;53.30
56825;BME280;42705;50.326;18.772;2023-06-22T09:39:49;98825.39;;;25.88;52.92
56825;BME280;42705;50.326;18.772;2023-06-22T09:45:11;98822.72;;;25.98;52.90
56825;BME280;42705;50.326;18.772;2023-06-22T09:50:32;98810.30;;;26.08;52.17
56825;BME280;42705;50.326;18.772;2023-06-22T09:55:53;98806.73;;;26.20;51.97
56825;BME280;42705;50.326;18.772;2023-06-22T10:01:14;98806.35;;;26.32;51.96
56825;BME280;42705;50.326;18.772;2023-06-22T10:06:35;98800.36;;;26.45;51.55
56825;BME280;42705;50.326;18.772;2023-06-22T10:11:56;98799.26;;;26.60;51.49
56825;BME280;42705;50.326;18.772;2023-06-22T10:17:18;98795.40;;;26.73;51.04
56825;BME280;42705;50.326;18.772;2023-06-22T10:22:40;98798.84;;;26.84;50.76
56825;BME280;42705;50.326;18.772;2023-06-22T10:28:02;98796.11;;;26.95;50.36
56825;BME280;42705;50.326;18.772;2023-06-22T10:33:23;98791.33;;;27.09;50.32
56825;BME280;42705;50.326;18.772;2023-06-22T10:38:46;98794.36;;;27.26;50.51
56825;BME280;42705;50.326;18.772;2023-06-22T10:44:17;98796.16;;;27.43;49.84
56825;BME280;42705;50.326;18.772;2023-06-22T10:49:39;98794.79;;;27.59;49.05
56825;BME280;42705;50.326;18.772;2023-06-22T10:55:00;98802.95;;;27.70;48.20
56825;BME280;42705;50.326;18.772;2023-06-22T11:00:21;98799.27;;;27.76;47.48
56825;BME280;42705;50.326;18.772;2023-06-22T11:05:42;98787.04;;;27.85;46.81
56825;BME280;42705;50.326;18.772;2023-06-22T11:11:03;98779.41;;;27.98;46.76
56825;BME280;42705;50.326;18.772;2023-06-22T11:16:24;98773.66;;;28.16;46.66
56825;BME280;42705;50.326;18.772;2023-06-22T11:21:46;98768.59;;;28.31;46.08
56825;BME280;42705;50.326;18.772;2023-06-22T11:27:07;98763.89;;;28.43;45.42
56825;BME280;42705;50.326;18.772;2023-06-22T11:32:28;98763.92;;;28.58;44.67
56825;BME280;42705;50.326;18.772;2023-06-22T11:37:49;98761.30;;;28.78;44.32
56825;BME280;42705;50.326;18.772;2023-06-22T11:43:10;98762.33;;;29.02;44.07
56825;BME280;42705;50.326;18.772;2023-06-22T11:48:31;98752.84;;;29.32;43.91
56825;BME280;42705;50.326;18.772;2023-06-22T11:53:54;98750.23;;;29.60;43.68
56825;BME280;42705;50.326;18.772;2023-06-22T11:59:15;98739.48;;;29.82;42.56
56825;BME280;42705;50.326;18.772;2023-06-22T12:04:36;98733.42;;;29.97;42.01
56825;BME280;42705;50.326;18.772;2023-06-22T12:09:57;98725.95;;;30.10;41.71
56825;BME280;42705;50.326;18.772;2023-06-22T12:15:19;98720.59;;;30.28;41.94
56825;BME280;42705;50.326;18.772;2023-06-22T12:20:40;98719.67;;;30.46;41.20
56825;BME280;42705;50.326;18.772;2023-06-22T12:26:01;98715.87;;;30.64;40.48
56825;BME280;42705;50.326;18.772;2023-06-22T12:31:22;98707.64;;;30.78;40.22
56825;BME280;42705;50.326;18.772;2023-06-22T12:36:43;98701.49;;;30.91;40.15
56825;BME280;42705;50.326;18.772;2023-06-22T12:42:05;98698.49;;;31.13;39.88
56825;BME280;42705;50.326;18.772;2023-06-22T12:47:29;98695.31;;;31.42;39.47
56825;BME280;42705;50.326;18.772;2023-06-22T12:52:50;98689.70;;;31.63;38.68
56825;BME280;42705;50.326;18.772;2023-06-22T12:58:11;98678.42;;;31.75;38.20
56825;BME280;42705;50.326;18.772;2023-06-22T13:03:33;98676.27;;;31.98;37.84
56825;BME280;42705;50.326;18.772;2023-06-22T13:08:54;98675.07;;;32.30;37.97
56825;BME280;42705;50.326;18.772;2023-06-22T13:14:15;98671.77;;;32.62;37.16
56825;BME280;42705;50.326;18.772;2023-06-22T13:19:37;98663.58;;;33.09;36.45
56825;BME280;42705;50.326;18.772;2023-06-22T13:24:59;98656.25;;;33.74;35.60
56825;BME280;42705;50.326;18.772;2023-06-22T13:30:20;98653.74;;;34.39;34.90
56825;BME280;42705;50.326;18.772;2023-06-22T13:35:42;98649.88;;;35.84;33.83
56825;BME280;42705;50.326;18.772;2023-06-22T13:41:04;98642.46;;;38.20;32.33
56825;BME280;42705;50.326;18.772;2023-06-22T13:46:25;98640.38;;;40.38;30.40
56825;BME280;42705;50.326;18.772;2023-06-22T13:51:47;98640.98;;;42.07;27.46
56825;BME280;42705;50.326;18.772;2023-06-22T13:57:09;98634.86;;;43.42;24.95
56825;BME280;42705;50.326;18.772;2023-06-22T14:02:30;98630.22;;;44.68;23.45
56825;BME280;42705;50.326;18.772;2023-06-22T14:07:51;98625.28;;;46.07;21.83
56825;BME280;42705;50.326;18.772;2023-06-22T14:13:13;98617.88;;;47.10;21.09
56825;BME280;42705;50.326;18.772;2023-06-22T14:18:34;98620.89;;;48.31;19.93
56825;BME280;42705;50.326;18.772;2023-06-22T14:23:55;98621.41;;;49.18;19.06
56825;BME280;42705;50.326;18.772;2023-06-22T14:29:16;98608.30;;;49.32;18.94
56825;BME280;42705;50.326;18.772;2023-06-22T14:34:37;98605.69;;;49.75;18.30
56825;BME280;42705;50.326;18.772;2023-06-22T14:40:00;98601.65;;;50.37;17.74
56825;BME280;42705;50.326;18.772;2023-06-22T14:45:21;98596.21;;;50.58;16.70
56825;BME280;42705;50.326;18.772;2023-06-22T14:50:42;98587.13;;;50.57;16.56
56825;BME280;42705;50.326;18.772;2023-06-22T14:56:03;98594.80;;;50.98;16.19
56825;BME280;42705;50.326;18.772;2023-06-22T15:01:25;98593.34;;;51.12;15.65
56825;BME280;42705;50.326;18.772;2023-06-22T15:06:46;98593.80;;;51.06;15.46
56825;BME280;42705;50.326;18.772;2023-06-22T15:12:07;98582.66;;;51.03;15.06
56825;BME280;42705;50.326;18.772;2023-06-22T15:17:32;98581.95;;;50.81;15.08
56825;BME280;42705;50.326;18.772;2023-06-22T15:22:53;98572.52;;;50.66;15.10
56825;BME280;42705;50.326;18.772;2023-06-22T15:28:14;98564.66;;;50.61;14.83
56825;BME280;42705;50.326;18.772;2023-06-22T15:33:36;98562.42;;;50.48;14.74
56825;BME280;42705;50.326;18.772;2023-06-22T15:38:58;98566.30;;;50.39;14.64
56825;BME280;42705;50.326;18.772;2023-06-22T15:44:19;98559.34;;;50.33;14.75
56825;BME280;42705;50.326;18.772;2023-06-22T15:49:40;98559.82;;;50.01;14.43
56825;BME280;42705;50.326;18.772;2023-06-22T15:55:01;98558.81;;;49.20;14.55
56825;BME280;42705;50.326;18.772;2023-06-22T16:00:22;98554.65;;;48.52;14.94
56825;BME280;42705;50.326;18.772;2023-06-22T16:05:44;98550.56;;;47.91;15.48
56825;BME280;42705;50.326;18.772;2023-06-22T16:11:05;98545.80;;;47.25;15.23
56825;BME280;42705;50.326;18.772;2023-06-22T16:16:28;98539.75;;;46.33;15.70
56825;BME280;42705;50.326;18.772;2023-06-22T16:21:50;98534.65;;;45.78;16.18
56825;BME280;42705;50.326;18.772;2023-06-22T16:27:11;98529.64;;;45.35;16.58
56825;BME280;42705;50.326;18.772;2023-06-22T16:32:32;98529.66;;;44.87;16.89
56825;BME280;42705;50.326;18.772;2023-06-22T16:37:54;98531.52;;;44.18;17.51
56825;BME280;42705;50.326;18.772;2023-06-22T16:43:16;98521.35;;;43.29;17.80
56825;BME280;42705;50.326;18.772;2023-06-22T16:48:37;98518.73;;;42.44;18.48
56825;BME280;42705;50.326;18.772;2023-06-22T16:53:58;98516.93;;;41.59;19.08
56825;BME280;42705;50.326;18.772;2023-06-22T16:59:20;98514.56;;;40.75;19.67
56825;BME280;42705;50.326;18.772;2023-06-22T17:04:42;98505.10;;;39.83;20.29
56825;BME280;42705;50.326;18.772;2023-06-22T17:10:09;98498.63;;;39.22;21.13
56825;BME280;42705;50.326;18.772;2023-06-22T17:15:31;98494.27;;;38.74;22.12
56825;BME280;42705;50.326;18.772;2023-06-22T17:20:53;98489.73;;;38.31;22.48
56825;BME280;42705;50.326;18.772;2023-06-22T17:26:14;98487.75;;;37.89;23.15
56825;BME280;42705;50.326;18.772;2023-06-22T17:31:40;98488.57;;;37.54;23.62
56825;BME280;42705;50.326;18.772;2023-06-22T17:37:19;98481.17;;;37.13;24.30
56825;BME280;42705;50.326;18.772;2023-06-22T17:42:40;98476.02;;;36.72;24.56
56825;BME280;42705;50.326;18.772;2023-06-22T17:48:01;98474.95;;;36.36;25.12
56825;BME280;42705;50.326;18.772;2023-06-22T17:53:26;98467.54;;;36.04;25.62
56825;BME280;42705;50.326;18.772;2023-06-22T17:58:52;98460.98;;;35.50;26.47
56825;BME280;42705;50.326;18.772;2023-06-22T18:04:16;98458.19;;;35.04;27.20
56825;BME280;42705;50.326;18.772;2023-06-22T18:09:40;98456.28;;;34.62;28.14
56825;BME280;42705;50.326;18.772;2023-06-22T18:15:02;98456.59;;;34.13;28.73
56825;BME280;42705;50.326;18.772;2023-06-22T18:20:24;98441.67;;;33.58;29.43
56825;BME280;42705;50.326;18.772;2023-06-22T18:25:47;98430.84;;;33.07;30.15
56825;BME280;42705;50.326;18.772;2023-06-22T18:31:09;98440.45;;;32.63;30.83
56825;BME280;42705;50.326;18.772;2023-06-22T18:36:39;98440.95;;;32.07;31.65
56825;BME280;42705;50.326;18.772;2023-06-22T18:42:02;98443.50;;;31.51;32.29
56825;BME280;42705;50.326;18.772;2023-06-22T18:47:28;98443.02;;;31.08;32.88
56825;BME280;42705;50.326;18.772;2023-06-22T18:53:01;98449.73;;;30.67;33.99
56825;BME280;42705;50.326;18.772;2023-06-22T18:58:24;98455.65;;;30.24;34.89
56825;BME280;42705;50.326;18.772;2023-06-22T19:03:49;98456.48;;;29.86;35.75
56825;BME280;42705;50.326;18.772;2023-06-22T19:09:14;98465.23;;;29.50;36.46
56825;BME280;42705;50.326;18.772;2023-06-22T19:14:36;98470.91;;;29.19;37.52
56825;BME280;42705;50.326;18.772;2023-06-22T19:20:01;98470.32;;;28.90;37.72
56825;BME280;42705;50.326;18.772;2023-06-22T19:25:28;98478.58;;;28.56;38.21
56825;BME280;42705;50.326;18.772;2023-06-22T19:30:56;98480.19;;;28.28;38.80
56825;BME280;42705;50.326;18.772;2023-06-22T19:36:20;98474.78;;;28.05;39.36
56825;BME280;42705;50.326;18.772;2023-06-22T19:41:45;98469.07;;;27.89;39.85
56825;BME280;42705;50.326;18.772;2023-06-22T19:47:06;98467.48;;;27.71;40.40
56825;BME280;42705;50.326;18.772;2023-06-22T19:52:38;98470.36;;;27.54;40.81
56825;BME280;42705;50.326;18.772;2023-06-22T19:58:00;98465.17;;;27.36;41.40
56825;BME280;42705;50.326;18.772;2023-06-22T20:03:30;98464.45;;;27.22;41.88
56825;BME280;42705;50.326;18.772;2023-06-22T20:08:55;98464.60;;;27.08;42.22
56825;BME280;42705;50.326;18.772;2023-06-22T20:14:21;98464.84;;;26.98;42.81
56825;BME280;42705;50.326;18.772;2023-06-22T20:19:42;98456.73;;;26.87;43.07
56825;BME280;42705;50.326;18.772;2023-06-22T20:25:05;98447.13;;;26.75;43.29
56825;BME280;42705;50.326;18.772;2023-06-22T20:30:26;98432.48;;;26.61;43.84
56825;BME280;42705;50.326;18.772;2023-06-22T20:35:48;98428.98;;;26.47;44.34
56825;BME280;42705;50.326;18.772;2023-06-22T20:41:10;98430.14;;;26.34;44.53
56825;BME280;42705;50.326;18.772;2023-06-22T20:46:31;98431.63;;;26.23;44.90
56825;BME280;42705;50.326;18.772;2023-06-22T20:51:52;98437.38;;;26.13;45.14
56825;BME280;42705;50.326;18.772;2023-06-22T20:57:14;98429.78;;;26.05;45.55
56825;BME280;42705;50.326;18.772;2023-06-22T21:02:35;98421.22;;;25.97;45.73
56825;BME280;42705;50.326;18.772;2023-06-22T21:07:56;98420.55;;;25.90;46.08
56825;BME280;42705;50.326;18.772;2023-06-22T21:13:17;98426.28;;;25.79;46.37
56825;BME280;42705;50.326;18.772;2023-06-22T21:18:39;98432.20;;;25.69;46.67
56825;BME280;42705;50.326;18.772;2023-06-22T21:24:01;98418.13;;;25.62;47.00
56825;BME280;42705;50.326;18.772;2023-06-22T21:29:22;98422.88;;;25.55;47.43
56825;BME280;42705;50.326;18.772;2023-06-22T21:34:43;98426.80;;;25.49;47.57
56825;BME280;42705;50.326;18.772;2023-06-22T21:40:05;98422.34;;;25.44;47.67
56825;BME280;42705;50.326;18.772;2023-06-22T21:45:27;98420.66;;;25.39;47.88
56825;BME280;42705;50.326;18.772;2023-06-22T21:50:48;98405.27;;;25.36;48.19
56825;BME280;42705;50.326;18.772;2023-06-22T21:56:09;98401.11;;;25.31;48.31
56825;BME280;42705;50.326;18.772;2023-06-22T22:01:30;98396.34;;;25.26;48.49
56825;BME280;42705;50.326;18.772;2023-06-22T22:06:51;98387.23;;;25.21;48.74
56825;BME280;42705;50.326;18.772;2023-06-22T22:12:12;98373.81;;;25.17;48.95
56825;BME280;42705;50.326;18.772;2023-06-22T22:17:33;98370.02;;;25.12;49.16
56825;BME280;42705;50.326;18.772;2023-06-22T22:22:55;98354.39;;;25.07;49.33
56825;BME280;42705;50.326;18.772;2023-06-22T22:28:17;98344.89;;;24.99;49.44
56825;BME280;42705;50.326;18.772;2023-06-22T22:33:41;98330.77;;;24.88;49.52
56825;BME280;42705;50.326;18.772;2023-06-22T22:39:02;98300.81;;;24.74;49.90
56825;BME280;42705;50.326;18.772;2023-06-22T22:44:24;98284.67;;;24.63;50.11
56825;BME280;42705;50.326;18.772;2023-06-22T22:49:46;98285.11;;;24.51;50.34
56825;BME280;42705;50.326;18.772;2023-06-22T22:55:07;98283.75;;;24.42;50.60
56825;BME280;42705;50.326;18.772;2023-06-22T23:00:29;98285.87;;;24.39;50.90
56825;BME280;42705;50.326;18.772;2023-06-22T23:05:51;98280.91;;;24.35;50.93
56825;BME280;42705;50.326;18.772;2023-06-22T23:11:13;98276.73;;;24.27;50.99
56825;BME280;42705;50.326;18.772;2023-06-22T23:16:34;98263.60;;;24.21;51.29
56825;BME280;42705;50.326;18.772;2023-06-22T23:21:55;98248.77;;;24.14;51.43
56825;BME280;42705;50.326;18.772;2023-06-22T23:27:16;98236.91;;;24.07;51.46
56825;BME280;42705;50.326;18.772;2023-06-22T23:32:37;98231.17;;;24.00;51.77
56825;BME280;42705;50.326;18.772;2023-06-22T23:37:59;98228.31;;;23.94;51.87
56825;BME280;42705;50.326;18.772;2023-06-22T23:43:20;98217.49;;;23.89;52.04
56825;BME280;42705;50.326;18.772;2023-06-22T23:48:41;98209.55;;;23.83;52.30
56825;BME280;42705;50.326;18.772;2023-06-22T23:54:05;98208.38;;;23.78;52.47
56825;BME280;42705;50.326;18.772;2023-06-22T23:59:26;98215.48;;;23.74;52.66
